sensor_id;sensor_type;location;lat;lon;timestamp;temperature;humidity
9847;DHT22;4962;50.084;8.794;2023-02-28T00:00:30;3.90;99.90
9847;DHT22;4962;50.084;8.794;2023-02-28T00:02:58;3.90;99.90
9847;DHT22;4962;50.084;8.794;2023-02-28T00:05:26;3.80;99.90
9847;DHT22;4962;50.084;8.794;2023-02-28T00:07:54;3.80;99.90
9847;DHT22;4962;50.084;8.794;2023-02-28T00:10:23;3.80;99.90
9847;DHT22;4962;50.084;8.794;2023-02-28T00:12:53;3.60;99.90
9847;DHT22;4962;50.084;8.794;2023-02-28T00:15:22;3.70;99.90
9847;DHT22;4962;50.084;8.794;2023-02-28T00:17:50;3.70;99.90
9847;DHT22;4962;50.084;8.794;2023-02-28T00:20:18;3.60;99.90
9847;DHT22;4962;50.084;8.794;2023-02-28T00:22:46;3.60;99.90
9847;DHT22;4962;50.084;8.794;2023-02-28T00:25:15;3.60;99.90
9847;DHT22;4962;50.084;8.794;2023-02-28T00:27:43;3.60;99.90
9847;DHT22;4962;50.084;8.794;2023-02-28T00:30:15;3.60;99.90
9847;DHT22;4962;50.084;8.794;2023-02-28T00:32:43;3.50;99.90
9847;DHT22;4962;50.084;8.794;2023-02-28T00:35:10;3.60;99.90
9847;DHT22;4962;50.084;8.794;2023-02-28T00:37:38;3.60;99.90
9847;DHT22;4962;50.084;8.794;2023-02-28T00:40:06;3.60;99.90
9847;DHT22;4962;50.084;8.794;2023-02-28T00:42:35;3.60;99.90
9847;DHT22;4962;50.084;8.794;2023-02-28T00:45:02;3.60;99.90
9847;DHT22;4962;50.084;8.794;2023-02-28T00:47:32;3.60;99.90
9847;DHT22;4962;50.084;8.794;2023-02-28T00:49:59;3.70;99.90
9847;DHT22;4962;50.084;8.794;2023-02-28T00:52:25;3.70;99.90
9847;DHT22;4962;50.084;8.794;2023-02-28T00:54:52;3.70;99.90
9847;DHT22;4962;50.084;8.794;2023-02-28T00:57:19;3.70;99.90
9847;DHT22;4962;50.084;8.794;2023-02-28T00:59:46;3.70;99.90
9847;DHT22;4962;50.084;8.794;2023-02-28T01:02:13;3.70;99.90
9847;DHT22;4962;50.084;8.794;2023-02-28T01:04:42;3.70;99.90
9847;DHT22;4962;50.084;8.794;2023-02-28T01:07:08;3.70;99.90
9847;DHT22;4962;50.084;8.794;2023-02-28T01:09:36;3.60;99.90
9847;DHT22;4962;50.084;8.794;2023-02-28T01:12:03;3.70;99.90
9847;DHT22;4962;50.084;8.794;2023-02-28T01:14:30;3.70;99.90
9847;DHT22;4962;50.084;8.794;2023-02-28T01:16:57;3.70;99.90
9847;DHT22;4962;50.084;8.794;2023-02-28T01:19:24;3.70;99.90
9847;DHT22;4962;50.084;8.794;2023-02-28T01:21:52;3.70;99.90
9847;DHT22;4962;50.084;8.794;2023-02-28T01:24:19;3.80;99.90
9847;DHT22;4962;50.084;8.794;2023-02-28T01:26:46;3.70;99.90
9847;DHT22;4962;50.084;8.794;2023-02-28T01:29:13;3.70;99.90
9847;DHT22;4962;50.084;8.794;2023-02-28T01:31:40;3.70;99.90
9847;DHT22;4962;50.084;8.794;2023-02-28T01:34:07;3.60;99.90
9847;DHT22;4962;50.084;8.794;2023-02-28T01:36:33;3.60;99.90
9847;DHT22;4962;50.084;8.794;2023-02-28T01:39:03;3.50;99.90
9847;DHT22;4962;50.084;8.794;2023-02-28T01:41:32;3.40;99.90
9847;DHT22;4962;50.084;8.794;2023-02-28T01:44:03;3.40;99.90
9847;DHT22;4962;50.084;8.794;2023-02-28T01:46:31;3.40;99.90
9847;DHT22;4962;50.084;8.794;2023-02-28T01:49:04;3.30;99.90
9847;DHT22;4962;50.084;8.794;2023-02-28T01:51:37;3.40;99.90
9847;DHT22;4962;50.084;8.794;2023-02-28T01:54:10;3.30;99.90
9847;DHT22;4962;50.084;8.794;2023-02-28T01:56:41;3.40;99.90
9847;DHT22;4962;50.084;8.794;2023-02-28T01:59:12;3.40;99.90
9847;DHT22;4962;50.084;8.794;2023-02-28T02:01:39;3.40;99.90
9847;DHT22;4962;50.084;8.794;2023-02-28T02:04:06;3.40;99.90
9847;DHT22;4962;50.084;8.794;2023-02-28T02:06:37;3.40;99.90
9847;DHT22;4962;50.084;8.794;2023-02-28T02:09:04;3.40;99.90
9847;DHT22;4962;50.084;8.794;2023-02-28T02:11:34;3.40;99.90
9847;DHT22;4962;50.084;8.794;2023-02-28T02:14:31;3.40;99.90
9847;DHT22;4962;50.084;8.794;2023-02-28T02:17:19;3.40;99.90
9847;DHT22;4962;50.084;8.794;2023-02-28T02:23:22;3.40;99.90
9847;DHT22;4962;50.084;8.794;2023-02-28T02:25:53;3.30;99.90
9847;DHT22;4962;50.084;8.794;2023-02-28T02:28:55;3.30;99.90
9847;DHT22;4962;50.084;8.794;2023-02-28T02:31:49;3.30;99.90
9847;DHT22;4962;50.084;8.794;2023-02-28T02:34:43;3.30;99.90
9847;DHT22;4962;50.084;8.794;2023-02-28T02:37:24;3.20;99.90
9847;DHT22;4962;50.084;8.794;2023-02-28T02:40:01;3.20;99.90
9847;DHT22;4962;50.084;8.794;2023-02-28T02:42:39;3.20;99.90
9847;DHT22;4962;50.084;8.794;2023-02-28T02:45:10;3.20;99.90
9847;DHT22;4962;50.084;8.794;2023-02-28T02:47:39;3.10;99.90
9847;DHT22;4962;50.084;8.794;2023-02-28T02:50:12;3.10;99.90
9847;DHT22;4962;50.084;8.794;2023-02-28T02:52:42;3.10;99.90
9847;DHT22;4962;50.084;8.794;2023-02-28T02:55:13;3.10;99.90
9847;DHT22;4962;50.084;8.794;2023-02-28T02:57:45;3.10;99.90
9847;DHT22;4962;50.084;8.794;2023-02-28T03:00:15;3.10;99.90
9847;DHT22;4962;50.084;8.794;2023-02-28T03:02:44;3.10;99.90
9847;DHT22;4962;50.084;8.794;2023-02-28T03:05:17;3.10;99.90
9847;DHT22;4962;50.084;8.794;2023-02-28T03:07:45;3.10;99.90
9847;DHT22;4962;50.084;8.794;2023-02-28T03:10:31;3.10;99.90
9847;DHT22;4962;50.084;8.794;2023-02-28T03:13:08;3.00;99.90
9847;DHT22;4962;50.084;8.794;2023-02-28T03:15:48;3.00;99.90
9847;DHT22;4962;50.084;8.794;2023-02-28T03:18:23;3.00;99.90
9847;DHT22;4962;50.084;8.794;2023-02-28T03:21:00;3.00;99.90
9847;DHT22;4962;50.084;8.794;2023-02-28T03:23:37;2.90;99.90
9847;DHT22;4962;50.084;8.794;2023-02-28T03:26:10;2.80;99.90
9847;DHT22;4962;50.084;8.794;2023-02-28T03:28:43;2.80;99.90
9847;DHT22;4962;50.084;8.794;2023-02-28T03:31:19;2.70;99.90
9847;DHT22;4962;50.084;8.794;2023-02-28T03:33:51;2.70;99.90
9847;DHT22;4962;50.084;8.794;2023-02-28T03:36:25;2.70;99.90
9847;DHT22;4962;50.084;8.794;2023-02-28T03:38:56;2.60;99.90
9847;DHT22;4962;50.084;8.794;2023-02-28T03:41:27;2.60;99.90
9847;DHT22;4962;50.084;8.794;2023-02-28T03:43:59;2.50;99.90
9847;DHT22;4962;50.084;8.794;2023-02-28T03:46:31;2.50;99.90
9847;DHT22;4962;50.084;8.794;2023-02-28T03:49:03;2.40;99.90
9847;DHT22;4962;50.084;8.794;2023-02-28T03:51:35;2.40;99.90
9847;DHT22;4962;50.084;8.794;2023-02-28T03:54:05;2.40;99.90
9847;DHT22;4962;50.084;8.794;2023-02-28T03:56:38;2.40;99.90
9847;DHT22;4962;50.084;8.794;2023-02-28T03:59:07;2.40;99.90
9847;DHT22;4962;50.084;8.794;2023-02-28T04:01:39;2.40;99.90
9847;DHT22;4962;50.084;8.794;2023-02-28T04:04:07;2.50;99.90
9847;DHT22;4962;50.084;8.794;2023-02-28T04:07:01;2.50;99.90
9847;DHT22;4962;50.084;8.794;2023-02-28T04:09:29;2.60;99.90
9847;DHT22;4962;50.084;8.794;2023-02-28T04:11:55;2.60;99.90
9847;DHT22;4962;50.084;8.794;2023-02-28T04:14:23;2.60;99.90
9847;DHT22;4962;50.084;8.794;2023-02-28T04:16:50;2.60;99.90
9847;DHT22;4962;50.084;8.794;2023-02-28T04:19:17;2.70;99.90
9847;DHT22;4962;50.084;8.794;2023-02-28T04:21:46;2.60;99.90
9847;DHT22;4962;50.084;8.794;2023-02-28T04:24:17;2.70;99.90
9847;DHT22;4962;50.084;8.794;2023-02-28T04:26:46;2.70;99.90
9847;DHT22;4962;50.084;8.794;2023-02-28T04:29:18;2.70;99.90
9847;DHT22;4962;50.084;8.794;2023-02-28T04:31:45;2.70;99.90
9847;DHT22;4962;50.084;8.794;2023-02-28T04:34:13;2.70;99.90
9847;DHT22;4962;50.084;8.794;2023-02-28T04:36:40;2.70;99.90
9847;DHT22;4962;50.084;8.794;2023-02-28T04:39:07;2.60;99.90
9847;DHT22;4962;50.084;8.794;2023-02-28T04:41:36;2.60;99.90
9847;DHT22;4962;50.084;8.794;2023-02-28T04:44:03;2.50;99.90
9847;DHT22;4962;50.084;8.794;2023-02-28T04:46:30;2.50;99.90
9847;DHT22;4962;50.084;8.794;2023-02-28T04:48:57;2.50;99.90
9847;DHT22;4962;50.084;8.794;2023-02-28T04:51:24;2.50;99.90
9847;DHT22;4962;50.084;8.794;2023-02-28T04:53:52;2.50;99.90
9847;DHT22;4962;50.084;8.794;2023-02-28T04:56:19;2.50;99.90
9847;DHT22;4962;50.084;8.794;2023-02-28T04:58:48;2.50;99.90
9847;DHT22;4962;50.084;8.794;2023-02-28T05:01:18;2.50;99.90
9847;DHT22;4962;50.084;8.794;2023-02-28T05:03:46;2.40;99.90
9847;DHT22;4962;50.084;8.794;2023-02-28T05:09:35;2.30;99.90
9847;DHT22;4962;50.084;8.794;2023-02-28T05:12:02;2.30;99.90
9847;DHT22;4962;50.084;8.794;2023-02-28T05:14:30;2.20;99.90
9847;DHT22;4962;50.084;8.794;2023-02-28T05:16:57;2.20;99.90
9847;DHT22;4962;50.084;8.794;2023-02-28T05:19:24;2.20;99.90
9847;DHT22;4962;50.084;8.794;2023-02-28T05:21:52;2.20;99.90
9847;DHT22;4962;50.084;8.794;2023-02-28T05:24:20;2.20;99.90
9847;DHT22;4962;50.084;8.794;2023-02-28T05:26:49;2.20;99.90
9847;DHT22;4962;50.084;8.794;2023-02-28T05:29:16;2.20;99.90
9847;DHT22;4962;50.084;8.794;2023-02-28T05:31:44;2.20;99.90
9847;DHT22;4962;50.084;8.794;2023-02-28T05:34:11;2.20;99.90
9847;DHT22;4962;50.084;8.794;2023-02-28T05:36:38;2.20;99.90
9847;DHT22;4962;50.084;8.794;2023-02-28T05:39:06;2.20;99.90
9847;DHT22;4962;50.084;8.794;2023-02-28T05:41:41;2.10;99.90
9847;DHT22;4962;50.084;8.794;2023-02-28T05:44:08;2.10;99.90
9847;DHT22;4962;50.084;8.794;2023-02-28T05:46:35;2.10;99.90
9847;DHT22;4962;50.084;8.794;2023-02-28T05:49:04;2.00;99.90
9847;DHT22;4962;50.084;8.794;2023-02-28T05:51:31;1.90;99.90
9847;DHT22;4962;50.084;8.794;2023-02-28T05:54:06;2.00;99.90
9847;DHT22;4962;50.084;8.794;2023-02-28T05:56:33;2.00;99.90
9847;DHT22;4962;50.084;8.794;2023-02-28T05:59:00;2.00;99.90
9847;DHT22;4962;50.084;8.794;2023-02-28T06:01:33;2.00;99.90
9847;DHT22;4962;50.084;8.794;2023-02-28T06:04:00;2.00;99.90
9847;DHT22;4962;50.084;8.794;2023-02-28T06:06:29;2.00;99.90
9847;DHT22;4962;50.084;8.794;2023-02-28T06:08:56;1.90;99.90
9847;DHT22;4962;50.084;8.794;2023-02-28T06:11:23;1.90;99.90
9847;DHT22;4962;50.084;8.794;2023-02-28T06:13:54;1.90;99.90
9847;DHT22;4962;50.084;8.794;2023-02-28T06:16:21;1.70;99.90
9847;DHT22;4962;50.084;8.794;2023-02-28T06:18:48;1.80;99.90
9847;DHT22;4962;50.084;8.794;2023-02-28T06:21:15;1.80;99.90
9847;DHT22;4962;50.084;8.794;2023-02-28T06:23:43;1.80;99.90
9847;DHT22;4962;50.084;8.794;2023-02-28T06:26:13;1.80;99.90
9847;DHT22;4962;50.084;8.794;2023-02-28T06:28:40;1.80;99.90
9847;DHT22;4962;50.084;8.794;2023-02-28T06:31:08;1.80;99.90
9847;DHT22;4962;50.084;8.794;2023-02-28T06:33:35;1.80;99.90
9847;DHT22;4962;50.084;8.794;2023-02-28T06:36:02;1.90;99.90
9847;DHT22;4962;50.084;8.794;2023-02-28T06:38:29;1.90;99.90
9847;DHT22;4962;50.084;8.794;2023-02-28T06:40:58;1.90;99.90
9847;DHT22;4962;50.084;8.794;2023-02-28T06:43:27;1.90;99.90
9847;DHT22;4962;50.084;8.794;2023-02-28T06:45:55;1.90;99.90
9847;DHT22;4962;50.084;8.794;2023-02-28T06:48:22;1.90;99.90
9847;DHT22;4962;50.084;8.794;2023-02-28T06:50:49;2.00;99.90
9847;DHT22;4962;50.084;8.794;2023-02-28T06:53:16;2.00;99.90
9847;DHT22;4962;50.084;8.794;2023-02-28T06:55:43;2.20;99.90
9847;DHT22;4962;50.084;8.794;2023-02-28T06:58:12;2.50;99.90
9847;DHT22;4962;50.084;8.794;2023-02-28T07:00:49;2.80;99.90
9847;DHT22;4962;50.084;8.794;2023-02-28T07:03:17;3.10;99.90
9847;DHT22;4962;50.084;8.794;2023-02-28T07:05:45;3.40;99.90
9847;DHT22;4962;50.084;8.794;2023-02-28T07:08:12;3.90;99.90
9847;DHT22;4962;50.084;8.794;2023-02-28T07:10:39;4.20;99.90
9847;DHT22;4962;50.084;8.794;2023-02-28T07:13:07;4.60;99.90
9847;DHT22;4962;50.084;8.794;2023-02-28T07:15:36;4.90;99.90
9847;DHT22;4962;50.084;8.794;2023-02-28T07:18:04;5.20;99.90
9847;DHT22;4962;50.084;8.794;2023-02-28T07:20:31;5.60;99.90
9847;DHT22;4962;50.084;8.794;2023-02-28T07:22:58;5.90;99.90
9847;DHT22;4962;50.084;8.794;2023-02-28T07:25:26;6.20;99.90
9847;DHT22;4962;50.084;8.794;2023-02-28T07:27:54;6.50;99.90
9847;DHT22;4962;50.084;8.794;2023-02-28T07:30:21;6.70;99.90
9847;DHT22;4962;50.084;8.794;2023-02-28T07:32:50;6.80;99.70
9847;DHT22;4962;50.084;8.794;2023-02-28T07:35:17;6.90;98.50
9847;DHT22;4962;50.084;8.794;2023-02-28T07:38:03;6.90;97.90
9847;DHT22;4962;50.084;8.794;2023-02-28T07:40:31;6.90;97.30
9847;DHT22;4962;50.084;8.794;2023-02-28T07:42:59;6.90;96.50
9847;DHT22;4962;50.084;8.794;2023-02-28T07:45:26;6.80;95.80
9847;DHT22;4962;50.084;8.794;2023-02-28T07:47:56;6.60;95.20
9847;DHT22;4962;50.084;8.794;2023-02-28T07:50:41;6.50;94.30
9847;DHT22;4962;50.084;8.794;2023-02-28T07:53:08;6.30;93.50
9847;DHT22;4962;50.084;8.794;2023-02-28T07:55:35;6.20;92.90
9847;DHT22;4962;50.084;8.794;2023-02-28T07:58:02;6.00;92.50
9847;DHT22;4962;50.084;8.794;2023-02-28T08:00:29;5.80;92.30
9847;DHT22;4962;50.084;8.794;2023-02-28T08:02:58;5.60;92.20
9847;DHT22;4962;50.084;8.794;2023-02-28T08:05:25;5.40;92.20
9847;DHT22;4962;50.084;8.794;2023-02-28T08:07:52;5.30;92.20
9847;DHT22;4962;50.084;8.794;2023-02-28T08:10:45;5.10;92.10
9847;DHT22;4962;50.084;8.794;2023-02-28T08:13:12;4.90;92.30
9847;DHT22;4962;50.084;8.794;2023-02-28T08:15:40;4.80;92.60
9847;DHT22;4962;50.084;8.794;2023-02-28T08:18:08;4.70;92.80
9847;DHT22;4962;50.084;8.794;2023-02-28T08:20:35;4.70;93.00
9847;DHT22;4962;50.084;8.794;2023-02-28T08:23:02;4.60;93.30
9847;DHT22;4962;50.084;8.794;2023-02-28T08:25:29;4.60;93.50
9847;DHT22;4962;50.084;8.794;2023-02-28T08:27:56;4.60;93.60
9847;DHT22;4962;50.084;8.794;2023-02-28T08:30:23;4.70;93.70
9847;DHT22;4962;50.084;8.794;2023-02-28T08:32:50;4.70;94.20
9847;DHT22;4962;50.084;8.794;2023-02-28T08:35:18;4.70;93.70
9847;DHT22;4962;50.084;8.794;2023-02-28T08:37:53;4.70;93.60
9847;DHT22;4962;50.084;8.794;2023-02-28T08:40:20;4.60;93.50
9847;DHT22;4962;50.084;8.794;2023-02-28T08:42:48;4.60;93.60
9847;DHT22;4962;50.084;8.794;2023-02-28T08:45:15;4.50;93.70
9847;DHT22;4962;50.084;8.794;2023-02-28T08:47:42;4.50;93.70
9847;DHT22;4962;50.084;8.794;2023-02-28T08:50:09;4.40;93.60
9847;DHT22;4962;50.084;8.794;2023-02-28T08:52:38;4.30;93.70
9847;DHT22;4962;50.084;8.794;2023-02-28T08:55:05;4.30;93.70
9847;DHT22;4962;50.084;8.794;2023-02-28T08:57:32;4.30;93.70
9847;DHT22;4962;50.084;8.794;2023-02-28T08:59:59;4.30;93.70
9847;DHT22;4962;50.084;8.794;2023-02-28T09:02:34;4.30;93.70
9847;DHT22;4962;50.084;8.794;2023-02-28T09:05:02;4.30;93.70
9847;DHT22;4962;50.084;8.794;2023-02-28T09:07:29;4.30;93.70
9847;DHT22;4962;50.084;8.794;2023-02-28T09:09:58;4.30;93.90
9847;DHT22;4962;50.084;8.794;2023-02-28T09:12:25;4.30;93.90
9847;DHT22;4962;50.084;8.794;2023-02-28T09:14:52;4.40;93.80
9847;DHT22;4962;50.084;8.794;2023-02-28T09:17:20;4.40;94.20
9847;DHT22;4962;50.084;8.794;2023-02-28T09:19:48;4.40;93.70
9847;DHT22;4962;50.084;8.794;2023-02-28T09:22:15;4.40;93.60
9847;DHT22;4962;50.084;8.794;2023-02-28T09:24:42;4.40;93.50
9847;DHT22;4962;50.084;8.794;2023-02-28T09:27:11;4.40;93.40
9847;DHT22;4962;50.084;8.794;2023-02-28T09:29:38;4.40;93.40
9847;DHT22;4962;50.084;8.794;2023-02-28T09:32:07;4.50;93.30
9847;DHT22;4962;50.084;8.794;2023-02-28T09:34:34;4.50;93.20
9847;DHT22;4962;50.084;8.794;2023-02-28T09:37:02;4.50;92.80
9847;DHT22;4962;50.084;8.794;2023-02-28T09:39:29;4.50;92.50
9847;DHT22;4962;50.084;8.794;2023-02-28T09:41:57;4.50;92.30
9847;DHT22;4962;50.084;8.794;2023-02-28T09:44:30;4.50;92.20
9847;DHT22;4962;50.084;8.794;2023-02-28T09:47:01;4.60;92.20
9847;DHT22;4962;50.084;8.794;2023-02-28T09:49:36;4.60;92.00
9847;DHT22;4962;50.084;8.794;2023-02-28T09:52:05;4.60;91.70
9847;DHT22;4962;50.084;8.794;2023-02-28T09:54:34;4.60;91.60
9847;DHT22;4962;50.084;8.794;2023-02-28T09:57:07;4.70;91.40
9847;DHT22;4962;50.084;8.794;2023-02-28T09:59:49;4.70;91.00
9847;DHT22;4962;50.084;8.794;2023-02-28T10:02:40;4.70;90.60
9847;DHT22;4962;50.084;8.794;2023-02-28T10:05:19;4.80;90.30
9847;DHT22;4962;50.084;8.794;2023-02-28T10:07:55;4.70;90.60
9847;DHT22;4962;50.084;8.794;2023-02-28T10:10:26;4.90;90.50
9847;DHT22;4962;50.084;8.794;2023-02-28T10:12:57;5.00;90.10
9847;DHT22;4962;50.084;8.794;2023-02-28T10:15:30;4.90;89.50
9847;DHT22;4962;50.084;8.794;2023-02-28T10:17:59;5.00;89.10
9847;DHT22;4962;50.084;8.794;2023-02-28T10:20:28;4.90;88.50
9847;DHT22;4962;50.084;8.794;2023-02-28T10:23:00;4.90;88.30
9847;DHT22;4962;50.084;8.794;2023-02-28T10:25:34;4.90;88.30
9847;DHT22;4962;50.084;8.794;2023-02-28T10:28:08;5.00;88.40
9847;DHT22;4962;50.084;8.794;2023-02-28T10:30:41;5.00;88.50
9847;DHT22;4962;50.084;8.794;2023-02-28T10:33:17;5.00;88.50
9847;DHT22;4962;50.084;8.794;2023-02-28T10:35:45;5.00;88.60
9847;DHT22;4962;50.084;8.794;2023-02-28T10:38:17;5.10;88.50
9847;DHT22;4962;50.084;8.794;2023-02-28T10:40:44;5.10;89.30
9847;DHT22;4962;50.084;8.794;2023-02-28T10:43:23;5.20;88.40
9847;DHT22;4962;50.084;8.794;2023-02-28T10:46:02;5.30;88.10
9847;DHT22;4962;50.084;8.794;2023-02-28T10:48:36;5.30;87.60
9847;DHT22;4962;50.084;8.794;2023-02-28T10:51:05;5.30;87.20
9847;DHT22;4962;50.084;8.794;2023-02-28T10:53:47;5.30;86.50
9847;DHT22;4962;50.084;8.794;2023-02-28T10:59:38;5.40;86.50
9847;DHT22;4962;50.084;8.794;2023-02-28T11:02:29;5.50;87.10
9847;DHT22;4962;50.084;8.794;2023-02-28T11:04:57;5.50;85.60
9847;DHT22;4962;50.084;8.794;2023-02-28T11:07:25;5.50;85.50
9847;DHT22;4962;50.084;8.794;2023-02-28T11:09:54;5.50;85.30
9847;DHT22;4962;50.084;8.794;2023-02-28T11:12:24;5.40;84.80
9847;DHT22;4962;50.084;8.794;2023-02-28T11:14:55;5.30;83.60
9847;DHT22;4962;50.084;8.794;2023-02-28T11:17:25;5.30;83.70
9847;DHT22;4962;50.084;8.794;2023-02-28T11:20:04;5.20;83.50
9847;DHT22;4962;50.084;8.794;2023-02-28T11:22:36;5.30;83.50
9847;DHT22;4962;50.084;8.794;2023-02-28T11:25:09;5.30;83.50
9847;DHT22;4962;50.084;8.794;2023-02-28T11:27:46;5.30;83.20
9847;DHT22;4962;50.084;8.794;2023-02-28T11:30:39;5.40;83.40
9847;DHT22;4962;50.084;8.794;2023-02-28T11:33:26;5.40;83.20
9847;DHT22;4962;50.084;8.794;2023-02-28T11:35:58;5.40;82.60
9847;DHT22;4962;50.084;8.794;2023-02-28T11:38:27;5.40;82.30
9847;DHT22;4962;50.084;8.794;2023-02-28T11:41:05;5.40;81.90
9847;DHT22;4962;50.084;8.794;2023-02-28T11:43:50;5.30;81.60
9847;DHT22;4962;50.084;8.794;2023-02-28T11:46:25;5.30;81.80
9847;DHT22;4962;50.084;8.794;2023-02-28T11:49:01;5.40;82.00
9847;DHT22;4962;50.084;8.794;2023-02-28T11:51:33;5.30;81.90
9847;DHT22;4962;50.084;8.794;2023-02-28T11:54:23;5.40;82.40
9847;DHT22;4962;50.084;8.794;2023-02-28T11:56:54;5.50;82.60
9847;DHT22;4962;50.084;8.794;2023-02-28T11:59:38;5.50;82.50
9847;DHT22;4962;50.084;8.794;2023-02-28T12:02:24;5.50;82.10
9847;DHT22;4962;50.084;8.794;2023-02-28T12:05:04;5.60;82.40
9847;DHT22;4962;50.084;8.794;2023-02-28T12:07:39;5.60;82.90
9847;DHT22;4962;50.084;8.794;2023-02-28T12:10:20;5.80;83.20
9847;DHT22;4962;50.084;8.794;2023-02-28T12:13:01;5.90;82.90
9847;DHT22;4962;50.084;8.794;2023-02-28T12:18:51;5.90;82.20
9847;DHT22;4962;50.084;8.794;2023-02-28T12:21:45;5.90;82.20
9847;DHT22;4962;50.084;8.794;2023-02-28T12:24:29;6.00;82.10
9847;DHT22;4962;50.084;8.794;2023-02-28T12:27:00;6.00;81.90
9847;DHT22;4962;50.084;8.794;2023-02-28T12:29:32;6.00;81.90
9847;DHT22;4962;50.084;8.794;2023-02-28T12:32:04;6.10;81.80
9847;DHT22;4962;50.084;8.794;2023-02-28T12:34:36;6.10;81.60
9847;DHT22;4962;50.084;8.794;2023-02-28T12:37:09;6.10;81.60
9847;DHT22;4962;50.084;8.794;2023-02-28T12:39:40;6.10;81.10
9847;DHT22;4962;50.084;8.794;2023-02-28T12:42:11;6.10;80.50
9847;DHT22;4962;50.084;8.794;2023-02-28T12:44:44;6.10;80.40
9847;DHT22;4962;50.084;8.794;2023-02-28T12:50:35;6.00;80.60
9847;DHT22;4962;50.084;8.794;2023-02-28T12:53:06;6.00;80.80
9847;DHT22;4962;50.084;8.794;2023-02-28T12:55:40;6.10;81.70
9847;DHT22;4962;50.084;8.794;2023-02-28T12:58:12;6.10;82.30
9847;DHT22;4962;50.084;8.794;2023-02-28T13:01:08;6.20;81.80
9847;DHT22;4962;50.084;8.794;2023-02-28T13:03:57;6.20;81.20
9847;DHT22;4962;50.084;8.794;2023-02-28T13:06:52;6.20;81.10
9847;DHT22;4962;50.084;8.794;2023-02-28T13:09:26;6.20;80.90
9847;DHT22;4962;50.084;8.794;2023-02-28T13:11:56;6.30;81.00
9847;DHT22;4962;50.084;8.794;2023-02-28T13:14:26;6.30;81.10
9847;DHT22;4962;50.084;8.794;2023-02-28T13:17:01;6.40;81.30
9847;DHT22;4962;50.084;8.794;2023-02-28T13:19:41;6.40;81.30
9847;DHT22;4962;50.084;8.794;2023-02-28T13:22:36;6.40;81.30
9847;DHT22;4962;50.084;8.794;2023-02-28T13:28:57;6.50;81.40
9847;DHT22;4962;50.084;8.794;2023-02-28T13:31:25;6.50;81.20
9847;DHT22;4962;50.084;8.794;2023-02-28T13:34:19;6.50;81.20
9847;DHT22;4962;50.084;8.794;2023-02-28T13:36:46;6.50;81.10
9847;DHT22;4962;50.084;8.794;2023-02-28T13:39:56;6.60;80.90
9847;DHT22;4962;50.084;8.794;2023-02-28T13:42:36;6.50;81.10
9847;DHT22;4962;50.084;8.794;2023-02-28T13:45:27;6.50;81.30
9847;DHT22;4962;50.084;8.794;2023-02-28T13:47:59;6.60;81.60
9847;DHT22;4962;50.084;8.794;2023-02-28T13:50:32;6.70;82.20
9847;DHT22;4962;50.084;8.794;2023-02-28T13:53:37;6.70;82.10
9847;DHT22;4962;50.084;8.794;2023-02-28T13:56:21;6.70;82.30
9847;DHT22;4962;50.084;8.794;2023-02-28T13:58:55;6.80;82.90
9847;DHT22;4962;50.084;8.794;2023-02-28T14:01:51;6.80;83.00
9847;DHT22;4962;50.084;8.794;2023-02-28T14:04:41;6.80;83.40
9847;DHT22;4962;50.084;8.794;2023-02-28T14:07:19;6.80;83.50
9847;DHT22;4962;50.084;8.794;2023-02-28T14:09:55;6.70;83.30
9847;DHT22;4962;50.084;8.794;2023-02-28T14:12:54;6.80;83.50
9847;DHT22;4962;50.084;8.794;2023-02-28T14:15:43;6.80;83.50
9847;DHT22;4962;50.084;8.794;2023-02-28T14:18:28;6.80;83.40
9847;DHT22;4962;50.084;8.794;2023-02-28T14:21:01;6.80;83.60
9847;DHT22;4962;50.084;8.794;2023-02-28T14:23:57;6.80;83.90
9847;DHT22;4962;50.084;8.794;2023-02-28T14:30:03;6.80;84.10
9847;DHT22;4962;50.084;8.794;2023-02-28T14:32:49;6.80;84.10
9847;DHT22;4962;50.084;8.794;2023-02-28T14:35:28;6.70;83.80
9847;DHT22;4962;50.084;8.794;2023-02-28T14:38:05;6.80;83.90
9847;DHT22;4962;50.084;8.794;2023-02-28T14:40:34;6.80;84.10
9847;DHT22;4962;50.084;8.794;2023-02-28T14:43:03;6.80;84.00
9847;DHT22;4962;50.084;8.794;2023-02-28T14:45:34;6.80;83.80
9847;DHT22;4962;50.084;8.794;2023-02-28T14:48:05;6.80;83.60
9847;DHT22;4962;50.084;8.794;2023-02-28T14:50:37;6.60;83.30
9847;DHT22;4962;50.084;8.794;2023-02-28T14:53:10;6.70;83.50
9847;DHT22;4962;50.084;8.794;2023-02-28T14:55:44;6.70;84.00
9847;DHT22;4962;50.084;8.794;2023-02-28T14:58:22;6.70;85.20
9847;DHT22;4962;50.084;8.794;2023-02-28T15:00:51;6.70;85.00
9847;DHT22;4962;50.084;8.794;2023-02-28T15:03:22;6.70;84.90
9847;DHT22;4962;50.084;8.794;2023-02-28T15:05:54;6.70;84.80
9847;DHT22;4962;50.084;8.794;2023-02-28T15:08:21;6.70;84.60
9847;DHT22;4962;50.084;8.794;2023-02-28T15:10:53;6.70;84.80
9847;DHT22;4962;50.084;8.794;2023-02-28T15:13:21;6.70;84.60
9847;DHT22;4962;50.084;8.794;2023-02-28T15:15:51;6.70;84.70
9847;DHT22;4962;50.084;8.794;2023-02-28T15:18:28;6.70;85.00
9847;DHT22;4962;50.084;8.794;2023-02-28T15:20:57;6.70;84.90
9847;DHT22;4962;50.084;8.794;2023-02-28T15:23:29;6.70;84.90
9847;DHT22;4962;50.084;8.794;2023-02-28T15:25:57;6.60;84.70
9847;DHT22;4962;50.084;8.794;2023-02-28T15:28:25;6.70;84.90
9847;DHT22;4962;50.084;8.794;2023-02-28T15:30:55;6.70;84.60
9847;DHT22;4962;50.084;8.794;2023-02-28T15:33:25;6.60;84.40
9847;DHT22;4962;50.084;8.794;2023-02-28T15:36:05;6.70;84.40
9847;DHT22;4962;50.084;8.794;2023-02-28T15:38:34;6.70;84.30
9847;DHT22;4962;50.084;8.794;2023-02-28T15:41:02;6.60;84.30
9847;DHT22;4962;50.084;8.794;2023-02-28T15:43:35;6.70;85.40
9847;DHT22;4962;50.084;8.794;2023-02-28T15:46:04;6.70;84.80
9847;DHT22;4962;50.084;8.794;2023-02-28T15:48:51;6.70;84.80
9847;DHT22;4962;50.084;8.794;2023-02-28T15:51:21;6.70;85.60
9847;DHT22;4962;50.084;8.794;2023-02-28T15:53:51;6.70;84.50
9847;DHT22;4962;50.084;8.794;2023-02-28T15:56:23;6.60;84.30
9847;DHT22;4962;50.084;8.794;2023-02-28T15:58:53;6.70;84.70
9847;DHT22;4962;50.084;8.794;2023-02-28T16:01:24;6.70;84.90
9847;DHT22;4962;50.084;8.794;2023-02-28T16:03:57;6.70;85.30
9847;DHT22;4962;50.084;8.794;2023-02-28T16:06:32;6.70;85.60
9847;DHT22;4962;50.084;8.794;2023-02-28T16:08:59;6.70;86.10
9847;DHT22;4962;50.084;8.794;2023-02-28T16:11:27;6.70;86.20
9847;DHT22;4962;50.084;8.794;2023-02-28T16:13:54;6.70;86.10
9847;DHT22;4962;50.084;8.794;2023-02-28T16:16:24;6.70;86.10
9847;DHT22;4962;50.084;8.794;2023-02-28T16:18:52;6.70;86.00
9847;DHT22;4962;50.084;8.794;2023-02-28T16:21:20;6.60;85.80
9847;DHT22;4962;50.084;8.794;2023-02-28T16:23:47;6.60;86.00
9847;DHT22;4962;50.084;8.794;2023-02-28T16:26:19;6.60;86.40
9847;DHT22;4962;50.084;8.794;2023-02-28T16:28:47;6.60;86.60
9847;DHT22;4962;50.084;8.794;2023-02-28T16:31:14;6.60;86.70
9847;DHT22;4962;50.084;8.794;2023-02-28T16:33:42;6.60;86.80
9847;DHT22;4962;50.084;8.794;2023-02-28T16:36:13;6.50;86.70
9847;DHT22;4962;50.084;8.794;2023-02-28T16:38:42;6.50;86.70
9847;DHT22;4962;50.084;8.794;2023-02-28T16:41:12;6.50;86.80
9847;DHT22;4962;50.084;8.794;2023-02-28T16:43:45;6.50;86.80
9847;DHT22;4962;50.084;8.794;2023-02-28T16:46:12;6.40;86.80
9847;DHT22;4962;50.084;8.794;2023-02-28T16:48:40;6.40;86.90
9847;DHT22;4962;50.084;8.794;2023-02-28T16:51:11;6.40;86.80
9847;DHT22;4962;50.084;8.794;2023-02-28T16:53:38;6.30;86.80
9847;DHT22;4962;50.084;8.794;2023-02-28T16:56:14;6.30;86.70
9847;DHT22;4962;50.084;8.794;2023-02-28T16:58:42;6.30;86.50
9847;DHT22;4962;50.084;8.794;2023-02-28T17:01:09;6.30;86.60
9847;DHT22;4962;50.084;8.794;2023-02-28T17:03:36;6.20;86.30
9847;DHT22;4962;50.084;8.794;2023-02-28T17:06:03;6.30;86.50
9847;DHT22;4962;50.084;8.794;2023-02-28T17:08:59;6.30;86.50
9847;DHT22;4962;50.084;8.794;2023-02-28T17:11:27;6.30;86.70